sensor_id;sensor_type;location;lat;lon;timestamp;temperature;humidity
16388;DHT22;8303;53.446;9.988;2023-03-26T04:47:39;5.60;1.00
16388;DHT22;8303;53.446;9.988;2023-03-26T04:50:07;5.60;1.00
16388;DHT22;8303;53.446;9.988;2023-03-26T04:52:36;5.50;1.00
16388;DHT22;8303;53.446;9.988;2023-03-26T04:55:06;5.50;1.00
16388;DHT22;8303;53.446;9.988;2023-03-26T04:57:37;5.40;1.00
16388;DHT22;8303;53.446;9.988;2023-03-26T05:00:08;5.30;1.00
16388;DHT22;8303;53.446;9.988;2023-03-26T05:02:40;5.30;1.00
16388;DHT22;8303;53.446;9.988;2023-03-26T05:05:08;5.30;1.00
16388;DHT22;8303;53.446;9.988;2023-03-26T05:07:35;5.30;1.00
16388;DHT22;8303;53.446;9.988;2023-03-26T05:10:03;5.30;1.00
16388;DHT22;8303;53.446;9.988;2023-03-26T05:12:30;5.30;1.00
16388;DHT22;8303;53.446;9.988;2023-03-26T05:14:57;5.40;1.00
16388;DHT22;8303;53.446;9.988;2023-03-26T05:17:24;5.40;1.00
16388;DHT22;8303;53.446;9.988;2023-03-26T05:19:56;5.50;1.00
16388;DHT22;8303;53.446;9.988;2023-03-26T05:22:23;5.50;1.00
16388;DHT22;8303;53.446;9.988;2023-03-26T05:24:50;5.50;1.00
16388;DHT22;8303;53.446;9.988;2023-03-26T05:27:17;5.60;99.90
16388;DHT22;8303;53.446;9.988;2023-03-26T05:29:45;5.50;1.00
16388;DHT22;8303;53.446;9.988;2023-03-26T05:32:12;5.50;1.00
16388;DHT22;8303;53.446;9.988;2023-03-26T05:34:40;5.50;99.90
16388;DHT22;8303;53.446;9.988;2023-03-26T05:37:08;5.40;99.90
16388;DHT22;8303;53.446;9.988;2023-03-26T05:39:35;5.40;99.90
16388;DHT22;8303;53.446;9.988;2023-03-26T05:42:02;5.30;99.90
16388;DHT22;8303;53.446;9.988;2023-03-26T05:44:29;5.30;99.90
16388;DHT22;8303;53.446;9.988;2023-03-26T05:46:56;5.30;99.90
16388;DHT22;8303;53.446;9.988;2023-03-26T05:49:23;5.30;1.00
16388;DHT22;8303;53.446;9.988;2023-03-26T05:51:50;5.40;1.00
16388;DHT22;8303;53.446;9.988;2023-03-26T05:54:18;5.50;1.00
16388;DHT22;8303;53.446;9.988;2023-03-26T05:56:45;5.50;1.00
16388;DHT22;8303;53.446;9.988;2023-03-26T05:59:13;5.50;1.00
16388;DHT22;8303;53.446;9.988;2023-03-26T06:01:40;5.50;1.00
16388;DHT22;8303;53.446;9.988;2023-03-26T06:04:10;5.60;1.00
16388;DHT22;8303;53.446;9.988;2023-03-26T06:06:38;5.60;1.00
16388;DHT22;8303;53.446;9.988;2023-03-26T06:09:04;5.60;1.00
16388;DHT22;8303;53.446;9.988;2023-03-26T06:11:33;5.60;99.90
16388;DHT22;8303;53.446;9.988;2023-03-26T06:14:00;5.70;99.90
16388;DHT22;8303;53.446;9.988;2023-03-26T06:16:27;5.70;99.90
16388;DHT22;8303;53.446;9.988;2023-03-26T06:18:55;5.70;99.90
16388;DHT22;8303;53.446;9.988;2023-03-26T06:21:22;5.80;99.90
16388;DHT22;8303;53.446;9.988;2023-03-26T06:23:48;5.80;99.90
16388;DHT22;8303;53.446;9.988;2023-03-26T06:26:16;5.80;99.90
16388;DHT22;8303;53.446;9.988;2023-03-26T06:28:44;5.90;99.90
16388;DHT22;8303;53.446;9.988;2023-03-26T06:31:11;5.90;99.90
16388;DHT22;8303;53.446;9.988;2023-03-26T06:33:38;6.00;99.90
16388;DHT22;8303;53.446;9.988;2023-03-26T06:36:06;6.00;99.90
16388;DHT22;8303;53.446;9.988;2023-03-26T06:38:33;6.10;99.90
16388;DHT22;8303;53.446;9.988;2023-03-26T06:41:01;6.10;99.90
16388;DHT22;8303;53.446;9.988;2023-03-26T06:43:28;6.10;99.90
16388;DHT22;8303;53.446;9.988;2023-03-26T06:45:59;6.10;99.90
16388;DHT22;8303;53.446;9.988;2023-03-26T06:48:26;6.20;99.90
16388;DHT22;8303;53.446;9.988;2023-03-26T06:50:53;6.20;99.90
16388;DHT22;8303;53.446;9.988;2023-03-26T06:53:20;6.20;99.90
16388;DHT22;8303;53.446;9.988;2023-03-26T06:55:47;6.20;99.90
16388;DHT22;8303;53.446;9.988;2023-03-26T06:58:14;6.30;99.90
16388;DHT22;8303;53.446;9.988;2023-03-26T07:00:41;6.40;99.90
16388;DHT22;8303;53.446;9.988;2023-03-26T07:03:09;6.50;99.90
16388;DHT22;8303;53.446;9.988;2023-03-26T07:05:37;6.50;99.90
16388;DHT22;8303;53.446;9.988;2023-03-26T07:08:04;6.50;99.90
16388;DHT22;8303;53.446;9.988;2023-03-26T07:10:31;6.40;99.90
16388;DHT22;8303;53.446;9.988;2023-03-26T07:12:58;6.50;99.90
16388;DHT22;8303;53.446;9.988;2023-03-26T07:15:26;6.50;99.90
16388;DHT22;8303;53.446;9.988;2023-03-26T07:17:53;6.50;99.90
16388;DHT22;8303;53.446;9.988;2023-03-26T07:20:22;6.60;99.90
16388;DHT22;8303;53.446;9.988;2023-03-26T07:22:49;6.70;99.90
16388;DHT22;8303;53.446;9.988;2023-03-26T07:25:17;6.80;99.90
16388;DHT22;8303;53.446;9.988;2023-03-26T07:27:52;6.80;99.90
16388;DHT22;8303;53.446;9.988;2023-03-26T07:30:27;6.80;99.90
16388;DHT22;8303;53.446;9.988;2023-03-26T07:33:00;6.70;99.90
16388;DHT22;8303;53.446;9.988;2023-03-26T07:35:35;6.80;99.90
16388;DHT22;8303;53.446;9.988;2023-03-26T07:38:21;6.90;99.90
16388;DHT22;8303;53.446;9.988;2023-03-26T07:40:57;6.90;99.90
16388;DHT22;8303;53.446;9.988;2023-03-26T07:46:26;7.00;46.10
16388;DHT22;8303;53.446;9.988;2023-03-26T07:48:54;7.10;9.80
16388;DHT22;8303;53.446;9.988;2023-03-26T07:51:25;7.10;1.00
16388;DHT22;8303;53.446;9.988;2023-03-26T07:53:52;7.10;1.00
16388;DHT22;8303;53.446;9.988;2023-03-26T07:56:21;7.00;1.00
16388;DHT22;8303;53.446;9.988;2023-03-26T07:59:05;6.90;1.00
16388;DHT22;8303;53.446;9.988;2023-03-26T08:01:47;6.90;1.00
16388;DHT22;8303;53.446;9.988;2023-03-26T08:04:36;6.90;1.00
16388;DHT22;8303;53.446;9.988;2023-03-26T08:07:13;7.10;1.00
16388;DHT22;8303;53.446;9.988;2023-03-26T08:09:49;6.90;1.00
16388;DHT22;8303;53.446;9.988;2023-03-26T08:12:23;6.90;1.00
16388;DHT22;8303;53.446;9.988;2023-03-26T08:14:59;6.80;1.00
16388;DHT22;8303;53.446;9.988;2023-03-26T08:17:33;6.80;1.00
16388;DHT22;8303;53.446;9.988;2023-03-26T08:20:09;7.00;1.00
16388;DHT22;8303;53.446;9.988;2023-03-26T08:22:40;7.00;1.00
16388;DHT22;8303;53.446;9.988;2023-03-26T08:25:22;6.90;1.00
16388;DHT22;8303;53.446;9.988;2023-03-26T08:28:03;6.90;1.00
16388;DHT22;8303;53.446;9.988;2023-03-26T08:30:33;7.00;1.00
16388;DHT22;8303;53.446;9.988;2023-03-26T08:33:11;7.10;1.00
16388;DHT22;8303;53.446;9.988;2023-03-26T08:35:38;6.90;1.00
16388;DHT22;8303;53.446;9.988;2023-03-26T08:38:08;7.00;1.00
16388;DHT22;8303;53.446;9.988;2023-03-26T08:40:55;7.10;1.00
16388;DHT22;8303;53.446;9.988;2023-03-26T08:43:53;7.30;1.00
16388;DHT22;8303;53.446;9.988;2023-03-26T08:49:27;7.30;1.00
16388;DHT22;8303;53.446;9.988;2023-03-26T08:55:28;7.80;1.00
16388;DHT22;8303;53.446;9.988;2023-03-26T09:04:21;7.70;1.00
16388;DHT22;8303;53.446;9.988;2023-03-26T09:16:22;7.70;1.00
16388;DHT22;8303;53.446;9.988;2023-03-26T09:22:27;7.40;1.00
16388;DHT22;8303;53.446;9.988;2023-03-26T09:25:24;7.50;1.00
16388;DHT22;8303;53.446;9.988;2023-03-26T09:28:09;7.90;1.00
16388;DHT22;8303;53.446;9.988;2023-03-26T09:31:01;8.00;1.00
16388;DHT22;8303;53.446;9.988;2023-03-26T09:36:53;8.20;1.00
16388;DHT22;8303;53.446;9.988;2023-03-26T09:39:34;8.40;1.00
16388;DHT22;8303;53.446;9.988;2023-03-26T09:42:13;8.90;1.00
16388;DHT22;8303;53.446;9.988;2023-03-26T09:51:08;8.50;1.00
16388;DHT22;8303;53.446;9.988;2023-03-26T09:53:52;8.50;1.00
16388;DHT22;8303;53.446;9.988;2023-03-26T09:56:30;8.50;1.00
16388;DHT22;8303;53.446;9.988;2023-03-26T10:02:13;8.80;1.00
16388;DHT22;8303;53.446;9.988;2023-03-26T10:07:46;8.70;1.00
16388;DHT22;8303;53.446;9.988;2023-03-26T10:10:22;8.60;1.00
16388;DHT22;8303;53.446;9.988;2023-03-26T10:12:54;8.60;1.00
16388;DHT22;8303;53.446;9.988;2023-03-26T10:15:32;8.60;1.00
16388;DHT22;8303;53.446;9.988;2023-03-26T10:18:11;8.40;1.00
16388;DHT22;8303;53.446;9.988;2023-03-26T10:20:51;8.00;1.00
16388;DHT22;8303;53.446;9.988;2023-03-26T10:23:42;7.90;1.00
16388;DHT22;8303;53.446;9.988;2023-03-26T10:29:27;8.00;1.00
16388;DHT22;8303;53.446;9.988;2023-03-26T10:32:02;8.20;1.00
16388;DHT22;8303;53.446;9.988;2023-03-26T10:34:47;8.30;1.00
16388;DHT22;8303;53.446;9.988;2023-03-26T10:37:24;8.30;1.00
16388;DHT22;8303;53.446;9.988;2023-03-26T10:46:00;9.00;1.00
16388;DHT22;8303;53.446;9.988;2023-03-26T10:48:50;9.10;1.00
16388;DHT22;8303;53.446;9.988;2023-03-26T10:51:40;8.70;1.00
16388;DHT22;8303;53.446;9.988;2023-03-26T10:54:17;8.40;1.00
16388;DHT22;8303;53.446;9.988;2023-03-26T10:56:48;8.20;1.00
16388;DHT22;8303;53.446;9.988;2023-03-26T10:59:18;8.40;1.00
16388;DHT22;8303;53.446;9.988;2023-03-26T11:01:50;8.70;1.00
16388;DHT22;8303;53.446;9.988;2023-03-26T11:04:35;8.90;1.00
16388;DHT22;8303;53.446;9.988;2023-03-26T11:07:10;9.20;1.00
16388;DHT22;8303;53.446;9.988;2023-03-26T11:09:44;8.90;1.00
16388;DHT22;8303;53.446;9.988;2023-03-26T11:12:20;8.80;1.00
16388;DHT22;8303;53.446;9.988;2023-03-26T11:14:56;8.20;1.00
16388;DHT22;8303;53.446;9.988;2023-03-26T11:17:35;8.10;1.00
16388;DHT22;8303;53.446;9.988;2023-03-26T11:20:08;7.70;1.00
16388;DHT22;8303;53.446;9.988;2023-03-26T11:22:45;7.70;1.00
16388;DHT22;8303;53.446;9.988;2023-03-26T11:25:44;8.10;1.00
16388;DHT22;8303;53.446;9.988;2023-03-26T11:28:21;8.80;1.00
16388;DHT22;8303;53.446;9.988;2023-03-26T11:30:56;8.70;1.00
16388;DHT22;8303;53.446;9.988;2023-03-26T11:33:28;8.70;1.00
16388;DHT22;8303;53.446;9.988;2023-03-26T11:36:00;8.90;1.00
16388;DHT22;8303;53.446;9.988;2023-03-26T11:38:32;9.00;1.00
16388;DHT22;8303;53.446;9.988;2023-03-26T11:41:03;8.80;1.00
16388;DHT22;8303;53.446;9.988;2023-03-26T11:43:34;8.50;1.00
16388;DHT22;8303;53.446;9.988;2023-03-26T11:46:05;8.50;1.00
16388;DHT22;8303;53.446;9.988;2023-03-26T11:48:36;8.60;1.00
16388;DHT22;8303;53.446;9.988;2023-03-26T11:51:07;8.60;1.00
16388;DHT22;8303;53.446;9.988;2023-03-26T11:53:36;8.70;1.00
16388;DHT22;8303;53.446;9.988;2023-03-26T11:56:09;9.00;1.00
16388;DHT22;8303;53.446;9.988;2023-03-26T11:58:42;9.10;1.00
16388;DHT22;8303;53.446;9.988;2023-03-26T12:01:15;9.10;1.00
16388;DHT22;8303;53.446;9.988;2023-03-26T12:03:55;9.30;1.00
16388;DHT22;8303;53.446;9.988;2023-03-26T12:06:24;9.30;1.00
16388;DHT22;8303;53.446;9.988;2023-03-26T12:08:53;9.30;1.00
16388;DHT22;8303;53.446;9.988;2023-03-26T12:11:24;9.30;1.00
16388;DHT22;8303;53.446;9.988;2023-03-26T12:13:55;9.20;1.00
16388;DHT22;8303;53.446;9.988;2023-03-26T12:16:25;9.30;1.00
16388;DHT22;8303;53.446;9.988;2023-03-26T12:19:00;9.60;1.00
16388;DHT22;8303;53.446;9.988;2023-03-26T12:21:29;9.60;1.00
16388;DHT22;8303;53.446;9.988;2023-03-26T12:23:58;9.10;1.00
16388;DHT22;8303;53.446;9.988;2023-03-26T12:26:36;8.70;1.00
16388;DHT22;8303;53.446;9.988;2023-03-26T12:29:07;8.80;1.00
16388;DHT22;8303;53.446;9.988;2023-03-26T12:31:50;9.00;1.00
16388;DHT22;8303;53.446;9.988;2023-03-26T12:34:18;9.30;1.00
16388;DHT22;8303;53.446;9.988;2023-03-26T12:36:49;9.30;1.00
16388;DHT22;8303;53.446;9.988;2023-03-26T12:39:28;9.30;1.00
16388;DHT22;8303;53.446;9.988;2023-03-26T12:41:57;9.70;1.00
16388;DHT22;8303;53.446;9.988;2023-03-26T12:44:28;9.90;1.00
16388;DHT22;8303;53.446;9.988;2023-03-26T12:47:12;9.80;1.00
16388;DHT22;8303;53.446;9.988;2023-03-26T12:49:40;9.80;1.00
16388;DHT22;8303;53.446;9.988;2023-03-26T12:52:23;9.80;1.00
16388;DHT22;8303;53.446;9.988;2023-03-26T12:54:57;9.80;1.00
16388;DHT22;8303;53.446;9.988;2023-03-26T12:57:33;9.80;1.00
16388;DHT22;8303;53.446;9.988;2023-03-26T13:00:25;9.70;1.00
16388;DHT22;8303;53.446;9.988;2023-03-26T13:03:22;9.70;1.00
16388;DHT22;8303;53.446;9.988;2023-03-26T13:06:17;9.70;1.00
16388;DHT22;8303;53.446;9.988;2023-03-26T13:09:12;10.00;1.00
16388;DHT22;8303;53.446;9.988;2023-03-26T13:11:52;9.40;1.00
16388;DHT22;8303;53.446;9.988;2023-03-26T13:14:44;9.20;1.00
16388;DHT22;8303;53.446;9.988;2023-03-26T13:17:21;9.70;1.00
16388;DHT22;8303;53.446;9.988;2023-03-26T13:19:58;10.00;1.00
16388;DHT22;8303;53.446;9.988;2023-03-26T13:22:35;10.00;1.00
16388;DHT22;8303;53.446;9.988;2023-03-26T13:25:15;10.00;1.00
16388;DHT22;8303;53.446;9.988;2023-03-26T13:27:50;10.20;1.00
16388;DHT22;8303;53.446;9.988;2023-03-26T13:30:26;10.20;1.00
16388;DHT22;8303;53.446;9.988;2023-03-26T13:33:10;10.60;1.00
16388;DHT22;8303;53.446;9.988;2023-03-26T13:35:48;10.40;1.00
16388;DHT22;8303;53.446;9.988;2023-03-26T13:38:23;10.30;1.00
16388;DHT22;8303;53.446;9.988;2023-03-26T13:41:01;10.40;1.00
16388;DHT22;8303;53.446;9.988;2023-03-26T13:43:40;10.20;1.00
16388;DHT22;8303;53.446;9.988;2023-03-26T13:46:16;10.10;1.00
16388;DHT22;8303;53.446;9.988;2023-03-26T13:48:51;10.50;1.00
16388;DHT22;8303;53.446;9.988;2023-03-26T13:51:26;10.50;1.00
16388;DHT22;8303;53.446;9.988;2023-03-26T13:53:57;10.90;1.00
16388;DHT22;8303;53.446;9.988;2023-03-26T13:56:29;10.50;1.00
16388;DHT22;8303;53.446;9.988;2023-03-26T13:59:00;10.40;1.00
16388;DHT22;8303;53.446;9.988;2023-03-26T14:01:32;10.40;1.00
16388;DHT22;8303;53.446;9.988;2023-03-26T14:04:05;10.80;1.00
16388;DHT22;8303;53.446;9.988;2023-03-26T14:06:41;10.80;1.00
16388;DHT22;8303;53.446;9.988;2023-03-26T14:09:16;11.00;1.00
16388;DHT22;8303;53.446;9.988;2023-03-26T14:11:58;10.90;1.00
16388;DHT22;8303;53.446;9.988;2023-03-26T14:14:33;10.80;1.00
16388;DHT22;8303;53.446;9.988;2023-03-26T14:17:05;11.20;1.00
16388;DHT22;8303;53.446;9.988;2023-03-26T14:22:42;11.60;1.00
16388;DHT22;8303;53.446;9.988;2023-03-26T14:25:23;11.60;1.00
16388;DHT22;8303;53.446;9.988;2023-03-26T14:28:01;11.90;1.00
16388;DHT22;8303;53.446;9.988;2023-03-26T14:30:53;11.60;1.00
16388;DHT22;8303;53.446;9.988;2023-03-26T14:33:47;12.10;1.00
16388;DHT22;8303;53.446;9.988;2023-03-26T14:36:26;11.90;1.00
16388;DHT22;8303;53.446;9.988;2023-03-26T14:42:01;12.20;1.00
16388;DHT22;8303;53.446;9.988;2023-03-26T14:47:36;12.30;1.00
16388;DHT22;8303;53.446;9.988;2023-03-26T14:50:39;12.50;1.00
16388;DHT22;8303;53.446;9.988;2023-03-26T14:53:19;12.60;1.00
16388;DHT22;8303;53.446;9.988;2023-03-26T14:56:16;11.60;1.00
16388;DHT22;8303;53.446;9.988;2023-03-26T15:02:35;11.40;1.00
16388;DHT22;8303;53.446;9.988;2023-03-26T15:08:49;12.20;1.00
16388;DHT22;8303;53.446;9.988;2023-03-26T15:11:31;12.50;1.00
16388;DHT22;8303;53.446;9.988;2023-03-26T15:17:09;10.80;1.00
16388;DHT22;8303;53.446;9.988;2023-03-26T15:26:31;11.00;1.00
16388;DHT22;8303;53.446;9.988;2023-03-26T15:29:53;11.30;1.00
16388;DHT22;8303;53.446;9.988;2023-03-26T15:41:53;12.30;1.00
16388;DHT22;8303;53.446;9.988;2023-03-26T15:44:40;11.70;1.00
16388;DHT22;8303;53.446;9.988;2023-03-26T15:47:47;11.30;1.00
16388;DHT22;8303;53.446;9.988;2023-03-26T15:50:34;11.30;1.00
16388;DHT22;8303;53.446;9.988;2023-03-26T15:53:27;11.50;1.00
16388;DHT22;8303;53.446;9.988;2023-03-26T15:56:04;11.80;1.00
16388;DHT22;8303;53.446;9.988;2023-03-26T15:58:41;12.10;1.00
16388;DHT22;8303;53.446;9.988;2023-03-26T16:01:15;12.30;1.00
16388;DHT22;8303;53.446;9.988;2023-03-26T16:03:50;12.30;1.00
16388;DHT22;8303;53.446;9.988;2023-03-26T16:06:28;12.50;1.00
16388;DHT22;8303;53.446;9.988;2023-03-26T16:09:16;13.00;1.00
16388;DHT22;8303;53.446;9.988;2023-03-26T16:11:52;13.80;1.00
16388;DHT22;8303;53.446;9.988;2023-03-26T16:14:23;14.00;1.00
16388;DHT22;8303;53.446;9.988;2023-03-26T16:17:03;14.40;1.00
16388;DHT22;8303;53.446;9.988;2023-03-26T16:19:49;13.80;1.00
16388;DHT22;8303;53.446;9.988;2023-03-26T16:22:44;13.70;1.00
16388;DHT22;8303;53.446;9.988;2023-03-26T16:25:24;13.60;1.00
16388;DHT22;8303;53.446;9.988;2023-03-26T16:28:17;12.70;1.00
16388;DHT22;8303;53.446;9.988;2023-03-26T16:34:24;13.00;1.00
16388;DHT22;8303;53.446;9.988;2023-03-26T16:36:52;13.00;1.00
16388;DHT22;8303;53.446;9.988;2023-03-26T16:39:23;13.00;1.00
16388;DHT22;8303;53.446;9.988;2023-03-26T16:41:55;11.60;1.00
16388;DHT22;8303;53.446;9.988;2023-03-26T16:44:27;11.00;1.00
16388;DHT22;8303;53.446;9.988;2023-03-26T16:47:05;10.60;1.00
16388;DHT22;8303;53.446;9.988;2023-03-26T16:49:49;10.50;99.90
16388;DHT22;8303;53.446;9.988;2023-03-26T16:52:30;10.40;99.90
16388;DHT22;8303;53.446;9.988;2023-03-26T16:55:05;10.60;99.90
16388;DHT22;8303;53.446;9.988;2023-03-26T16:57:36;10.80;99.90
16388;DHT22;8303;53.446;9.988;2023-03-26T17:00:30;10.80;99.90
16388;DHT22;8303;53.446;9.988;2023-03-26T17:03:30;10.70;1.00
16388;DHT22;8303;53.446;9.988;2023-03-26T17:06:05;10.30;99.90
16388;DHT22;8303;53.446;9.988;2023-03-26T17:08:43;9.80;99.90
16388;DHT22;8303;53.446;9.988;2023-03-26T17:11:21;9.20;99.90
16388;DHT22;8303;53.446;9.988;2023-03-26T17:13:58;9.30;1.00
16388;DHT22;8303;53.446;9.988;2023-03-26T17:16:32;8.90;1.00
16388;DHT22;8303;53.446;9.988;2023-03-26T17:19:08;8.30;1.00
16388;DHT22;8303;53.446;9.988;2023-03-26T17:21:46;7.90;1.00
16388;DHT22;8303;53.446;9.988;2023-03-26T17:24:24;7.70;1.00
16388;DHT22;8303;53.446;9.988;2023-03-26T17:26:58;7.60;1.00
16388;DHT22;8303;53.446;9.988;2023-03-26T17:29:35;7.40;1.00
16388;DHT22;8303;53.446;9.988;2023-03-26T17:32:09;7.30;1.00
16388;DHT22;8303;53.446;9.988;2023-03-26T17:34:57;7.10;1.00
16388;DHT22;8303;53.446;9.988;2023-03-26T17:37:34;7.00;1.00
16388;DHT22;8303;53.446;9.988;2023-03-26T17:40:49;7.00;1.00
16388;DHT22;8303;53.446;9.988;2023-03-26T17:46:26;6.90;1.00
16388;DHT22;8303;53.446;9.988;2023-03-26T17:48:59;6.90;1.00
16388;DHT22;8303;53.446;9.988;2023-03-26T17:51:36;6.80;1.00
16388;DHT22;8303;53.446;9.988;2023-03-26T17:54:07;6.80;1.00
16388;DHT22;8303;53.446;9.988;2023-03-26T17:56:39;6.70;1.00
16388;DHT22;8303;53.446;9.988;2023-03-26T17:59:07;6.70;1.00
16388;DHT22;8303;53.446;9.988;2023-03-26T18:01:37;6.70;1.00
16388;DHT22;8303;53.446;9.988;2023-03-26T18:04:10;6.60;1.00
16388;DHT22;8303;53.446;9.988;2023-03-26T18:06:53;6.60;1.00
16388;DHT22;8303;53.446;9.988;2023-03-26T18:09:35;6.60;1.00
16388;DHT22;8303;53.446;9.988;2023-03-26T18:12:27;6.60;1.00
16388;DHT22;8303;53.446;9.988;2023-03-26T18:15:15;6.50;1.00
16388;DHT22;8303;53.446;9.988;2023-03-26T18:17:46;6.50;1.00
16388;DHT22;8303;53.446;9.988;2023-03-26T18:20:21;6.40;1.00
16388;DHT22;8303;53.446;9.988;2023-03-26T18:22:51;6.40;1.00
16388;DHT22;8303;53.446;9.988;2023-03-26T18:25:23;6.40;1.00
16388;DHT22;8303;53.446;9.988;2023-03-26T18:27:51;6.30;1.00
16388;DHT22;8303;53.446;9.988;2023-03-26T18:30:19;6.30;1.00
16388;DHT22;8303;53.446;9.988;2023-03-26T18:32:51;6.30;1.00
16388;DHT22;8303;53.446;9.988;2023-03-26T18:35:23;6.20;1.00
16388;DHT22;8303;53.446;9.988;2023-03-26T18:37:53;6.20;1.00
16388;DHT22;8303;53.446;9.988;2023-03-26T18:40:26;6.10;1.00
16388;DHT22;8303;53.446;9.988;2023-03-26T18:42:55;6.00;1.00
16388;DHT22;8303;53.446;9.988;2023-03-26T18:45:26;6.00;1.00
16388;DHT22;8303;53.446;9.988;2023-03-26T18:47:55;5.90;1.00
16388;DHT22;8303;53.446;9.988;2023-03-26T18:50:25;5.90;1.00
16388;DHT22;8303;53.446;9.988;2023-03-26T18:52:56;5.80;1.00
16388;DHT22;8303;53.446;9.988;2023-03-26T18:55:26;5.80;1.00
16388;DHT22;8303;53.446;9.988;2023-03-26T18:57:53;5.80;1.00
16388;DHT22;8303;53.446;9.988;2023-03-26T19:00:23;5.80;1.00
16388;DHT22;8303;53.446;9.988;2023-03-26T19:03:00;5.80;1.00
16388;DHT22;8303;53.446;9.988;2023-03-26T19:05:29;5.80;1.00
16388;DHT22;8303;53.446;9.988;2023-03-26T19:07:59;5.80;1.00
16388;DHT22;8303;53.446;9.988;2023-03-26T19:10:28;5.80;1.00
16388;DHT22;8303;53.446;9.988;2023-03-26T19:12:57;5.70;1.00
16388;DHT22;8303;53.446;9.988;2023-03-26T19:15:27;5.70;1.00
16388;DHT22;8303;53.446;9.988;2023-03-26T19:17:57;5.70;1.00
16388;DHT22;8303;53.446;9.988;2023-03-26T19:20:37;5.70;1.00
16388;DHT22;8303;53.446;9.988;2023-03-26T19:23:07;5.60;1.00
16388;DHT22;8303;53.446;9.988;2023-03-26T19:25:38;5.70;1.00
16388;DHT22;8303;53.446;9.988;2023-03-26T19:28:14;5.70;1.00
16388;DHT22;8303;53.446;9.988;2023-03-26T19:30:43;5.70;1.00
16388;DHT22;8303;53.446;9.988;2023-03-26T19:33:15;5.70;1.00
16388;DHT22;8303;53.446;9.988;2023-03-26T19:35:45;5.60;1.00
16388;DHT22;8303;53.446;9.988;2023-03-26T19:38:19;5.70;1.00
16388;DHT22;8303;53.446;9.988;2023-03-26T19:40:48;5.70;1.00
16388;DHT22;8303;53.446;9.988;2023-03-26T19:43:16;5.60;1.00
16388;DHT22;8303;53.446;9.988;2023-03-26T19:45:44;5.60;1.00
16388;DHT22;8303;53.446;9.988;2023-03-26T19:48:15;5.60;1.00
16388;DHT22;8303;53.446;9.988;2023-03-26T19:50:51;5.60;1.00
16388;DHT22;8303;53.446;9.988;2023-03-26T19:53:21;5.50;1.00
16388;DHT22;8303;53.446;9.988;2023-03-26T19:55:55;5.40;1.00
16388;DHT22;8303;53.446;9.988;2023-03-26T19:58:24;5.50;1.00
16388;DHT22;8303;53.446;9.988;2023-03-26T20:00:51;5.40;99.90
16388;DHT22;8303;53.446;9.988;2023-03-26T20:03:24;5.50;99.90
16388;DHT22;8303;53.446;9.988;2023-03-26T20:05:52;5.40;99.90
16388;DHT22;8303;53.446;9.988;2023-03-26T20:08:20;5.30;99.90
16388;DHT22;8303;53.446;9.988;2023-03-26T20:10:52;5.30;99.90
16388;DHT22;8303;53.446;9.988;2023-03-26T20:13:19;5.30;99.90
16388;DHT22;8303;53.446;9.988;2023-03-26T20:15:51;5.30;99.90
16388;DHT22;8303;53.446;9.988;2023-03-26T20:18:18;5.20;99.90
16388;DHT22;8303;53.446;9.988;2023-03-26T20:20:46;5.20;99.90
16388;DHT22;8303;53.446;9.988;2023-03-26T20:23:13;5.10;99.90
16388;DHT22;8303;53.446;9.988;2023-03-26T20:25:46;5.10;99.90
16388;DHT22;8303;53.446;9.988;2023-03-26T20:28:17;5.00;99.90
16388;DHT22;8303;53.446;9.988;2023-03-26T20:33:21;5.00;99.90
16388;DHT22;8303;53.446;9.988;2023-03-26T20:35:50;5.00;99.90
16388;DHT22;8303;53.446;9.988;2023-03-26T20:38:17;4.90;99.90
16388;DHT22;8303;53.446;9.988;2023-03-26T20:40:45;4.90;99.90
16388;DHT22;8303;53.446;9.988;2023-03-26T20:43:15;4.90;99.90
16388;DHT22;8303;53.446;9.988;2023-03-26T20:45:43;4.90;99.90
16388;DHT22;8303;53.446;9.988;2023-03-26T20:48:11;4.80;99.90
16388;DHT22;8303;53.446;9.988;2023-03-26T20:50:39;4.70;99.90
16388;DHT22;8303;53.446;9.988;2023-03-26T20:53:11;4.70;99.90
16388;DHT22;8303;53.446;9.988;2023-03-26T20:55:42;4.70;99.90
16388;DHT22;8303;53.446;9.988;2023-03-26T20:58:14;4.70;99.90
16388;DHT22;8303;53.446;9.988;2023-03-26T21:00:42;4.60;99.90
